Bookmark and Share
Track history (hours):
 

La Suprema

Last reported at 2014-Apr-20 11:33 UTC. Time now 2014-Apr-20 13:23 UTC.
Position N 36°58' E 010°30'.

Length 211 m; draft 7.4 m.

Type: Passenger vessel. MMSI: 247083700.

NotesDate/timePositionNaut miles runAvg speedWind from/ knotsBaromVisibWave heightAir tempDewpointWater temp
2014-Apr-20 11:33N 36°58' E 010°30'2121.5
2014-Apr-20 10:33N 37°19' E 010°30'34921.6
2014-Apr-19 18:25N 43°06' E 009°34'1821.4
2014-Apr-19 17:33N 43°23' E 009°26'2120.8
2014-Apr-19 16:33N 43°43' E 009°17'2221.8
2014-Apr-19 15:33N 44°04' E 009°07'2121.1
2014-Apr-19 14:33N 44°23' E 008°56'2 1.6
2014-Apr-19 13:32N 44°24' E 008°55'0 0.0
2014-Apr-19 12:32N 44°24' E 008°55'0 0.0
2014-Apr-19 11:28N 44°24' E 008°55'0 0.0
2014-Apr-19 10:31N 44°24' E 008°55'0 0.0
2014-Apr-19 09:24N 44°24' E 008°55'0 0.0
2014-Apr-19 08:30N 44°24' E 008°55'0 0.0
2014-Apr-19 07:33N 44°24' E 008°55'0 0.0
2014-Apr-19 06:29N 44°24' E 008°55'0 0.0
2014-Apr-19 05:29N 44°24' E 008°55'0 0.0
2014-Apr-19 04:28N 44°24' E 008°55'0 0.0
2014-Apr-19 03:16N 44°24' E 008°55'0 0.0
2014-Apr-19 02:33N 44°24' E 008°55'0 0.0
2014-Apr-19 01:30N 44°24' E 008°55'0 0.0
2014-Apr-19 00:08N 44°24' E 008°55'0 0.0
2014-Apr-18 23:20N 44°24' E 008°55'0 0.0
2014-Apr-18 22:32N 44°24' E 008°55'0 0.0
2014-Apr-18 21:31N 44°24' E 008°55'0 0.0
2014-Apr-18 20:31N 44°24' E 008°55'0 0.0
2014-Apr-18 19:28N 44°24' E 008°55'7 7.8
2014-Apr-18 18:33N 44°18' E 009°00'2323.0
2014-Apr-18 17:33N 43°57' E 009°11'2222.4
2014-Apr-18 16:33N 43°36' E 009°22'2422.4
2014-Apr-18 15:28N 43°13' E 009°33'8 0.2
2014-Apr-16 20:30N 43°05' E 009°38'2122.2
2014-Apr-16 19:33N 43°25' E 009°27'2222.3
2014-Apr-16 18:33N 43°45' E 009°15'2221.9
2014-Apr-16 17:33N 44°06' E 009°05'1919.0
2014-Apr-16 16:34N 44°24' E 008°56'1 0.9
2014-Apr-16 15:33N 44°24' E 008°55'0 0.0
2014-Apr-16 14:33N 44°24' E 008°55'0 0.0
2014-Apr-16 13:33N 44°24' E 008°55'0 0.0
2014-Apr-16 12:33N 44°24' E 008°55'0 0.0
2014-Apr-16 11:33N 44°24' E 008°55'0 0.0
2014-Apr-16 10:33N 44°24' E 008°55'0 0.0
2014-Apr-16 09:33N 44°24' E 008°55'0 0.0
2014-Apr-16 08:33N 44°24' E 008°55'0 0.0
2014-Apr-16 07:33N 44°24' E 008°55'0 0.0
2014-Apr-14 14:34N 44°24' E 008°55'5 4.7
2014-Apr-14 13:34N 44°21' E 008°59'5125.5
2014-Apr-14 11:34N 43°33' E 009°23'2625.7
2014-Apr-14 10:33N 43°08' E 009°34'4 0.1
2014-Apr-12 18:31N 43°05' E 009°37'2021.5
2014-Apr-12 17:34N 43°25' E 009°28'2221.9
2014-Apr-12 16:34N 43°44' E 009°15'2221.7
2014-Apr-12 15:34N 44°05' E 009°05'2019.8
2014-Apr-12 14:33N 44°24' E 008°56'1 1.2
2014-Apr-12 13:30N 44°24' E 008°55'0 0.0
2014-Apr-12 12:30N 44°24' E 008°55'0 0.0
2014-Apr-12 11:24N 44°24' E 008°55'0 0.0
2014-Apr-12 10:29N 44°24' E 008°55'0 0.0
2014-Apr-12 09:29N 44°24' E 008°55'0 0.0
2014-Apr-12 08:28N 44°24' E 008°55'0 0.0
2014-Apr-12 07:22N 44°24' E 008°55'0 0.0
2014-Apr-12 06:27N 44°24' E 008°55'0 0.0
2014-Apr-12 05:33N 44°24' E 008°55'0 0.0
2014-Apr-12 04:33N 44°24' E 008°55'0 0.0
2014-Apr-12 03:29N 44°24' E 008°55'0 0.0
2014-Apr-12 02:29N 44°24' E 008°55'0 0.0
2014-Apr-12 01:31N 44°24' E 008°55'0 0.0
2014-Apr-11 23:30N 44°24' E 008°55'0 0.0
2014-Apr-11 22:30N 44°24' E 008°55'0 0.0
2014-Apr-11 21:29N 44°24' E 008°55'0 0.0
2014-Apr-11 20:29N 44°24' E 008°55'0 0.0
2014-Apr-11 19:33N 44°24' E 008°55'4 4.3
2014-Apr-11 18:34N 44°21' E 008°59'2222.1
2014-Apr-11 17:33N 44°00' E 009°10'2322.8
2014-Apr-11 16:33N 43°39' E 009°21'2322.5
2014-Apr-11 15:33N 43°18' E 009°31'32222.3
2014-Apr-11 01:08N 37°58' E 010°25'1322.5
2014-Apr-11 00:33N 37°45' E 010°28'3021.9
2014-Apr-10 23:10N 37°15' E 010°29'2122.3
2014-Apr-10 22:13N 36°54' E 010°25'8 3.8
2014-Apr-10 20:08N 36°49' E 010°18'  

Dump ship's entire track history

sailing weather and tide predictions

La Suprema — IBIL — position and weather